Time;durP1;ratioP1;P1;durP2;ratioP2;P2;SDS_P1;SDS_P2;PMS_P1;PMS_P2;Temp;Humidity;BMP_temperature;BMP_pressure;BME280_temperature;BME280_humidity;BME280_pressure;Samples;Min_cycle;Max_cycle;Signal;HPM_P1;HPM_P2
2023/10/07 00:00:37;;;;;;;12.63;3.45;;;;;;;;;;5047454;27;99018;-72
2023/10/07 00:03:09;;;;;;;11.25;3.35;;;;;;;;;;5085244;27;98365;-72
2023/10/07 00:05:35;;;;;;;11.33;3.87;;;;;;;;;;5089557;27;98565;-72
2023/10/07 00:08:12;;;;;;;12.32;3.80;;;;;;;;;;5071916;27;100182;-72
2023/10/07 00:10:40;;;;;;;17.00;4.45;;;;;;;;;;5070077;27;98089;-72
2023/10/07 00:13:09;;;;;;;14.77;4.03;;;;;;;;;;5071196;27;99313;-72
2023/10/07 00:15:37;;;;;;;12.77;4.10;;;;;;;;;;5067335;27;100208;-73
2023/10/07 00:18:11;;;;;;;8.88;3.97;;;;;;;;;;5073554;27;98853;-72
2023/10/07 00:20:42;;;;;;;13.07;4.70;;;;;;;;;;5069716;27;99033;-72
2023/10/07 00:23:12;;;;;;;10.63;4.07;;;;;;;;;;5079673;27;98464;-71
2023/10/07 00:25:38;;;;;;;11.45;4.47;;;;;;;;;;5090955;27;98924;-73
2023/10/07 00:28:17;;;;;;;15.23;4.20;;;;;;;;;;5090441;27;100125;-72
2023/10/07 00:30:45;;;;;;;8.50;4.28;;;;;;;;;;5083895;27;98869;-72
2023/10/07 00:33:12;;;;;;;12.43;4.65;;;;;;;;;;5050851;27;99262;-72
2023/10/07 00:35:41;;;;;;;7.95;3.92;;;;;;;;;;5049116;27;99930;-73
2023/10/07 00:38:14;;;;;;;8.07;4.22;;;;;;;;;;5048835;27;98301;-72
2023/10/07 00:40:54;;;;;;;12.15;5.43;;;;;;;;;;5086338;27;101148;-72
2023/10/07 00:43:27;;;;;;;20.27;5.03;;;;;;;;;;5046762;27;98336;-72
2023/10/07 00:46:06;;;;;;;14.00;4.63;;;;;;;;;;5050227;27;98772;-72
2023/10/07 00:48:52;;;;;;;18.85;4.65;;;;;;;;;;5056515;27;99945;-72
2023/10/07 00:51:34;;;;;;;12.75;4.75;;;;;;;;;;5050214;27;98103;-72
2023/10/07 00:54:17;;;;;;;13.23;5.47;;;;;;;;;;5070159;27;98449;-71
2023/10/07 00:56:50;;;;;;;19.33;6.53;;;;;;;;;;5054772;27;99882;-72
2023/10/07 00:59:18;;;;;;;14.82;5.28;;;;;;;;;;5049855;27;98119;-73
2023/10/07 01:01:49;;;;;;;11.00;4.28;;;;;;;;;;5066814;27;99199;-73
2023/10/07 01:04:16;;;;;;;16.35;4.75;;;;;;;;;;5057920;27;98496;-71
2023/10/07 01:06:45;;;;;;;18.40;5.43;;;;;;;;;;5050184;27;98641;-71
2023/10/07 01:09:14;;;;;;;12.43;4.90;;;;;;;;;;5047205;27;101123;-72
2023/10/07 01:11:45;;;;;;;15.65;6.07;;;;;;;;;;5067622;27;98169;-71
2023/10/07 01:14:12;;;;;;;15.75;5.32;;;;;;;;;;5069729;27;99347;-72
2023/10/07 01:16:45;;;;;;;13.13;4.78;;;;;;;;;;5068994;27;99840;-71
2023/10/07 01:21:50;;;;;;;8.90;4.38;;;;;;;;;;5055881;27;99353;-72
2023/10/07 01:24:34;;;;;;;9.93;4.85;;;;;;;;;;5052134;27;98920;-72
2023/10/07 01:27:10;;;;;;;19.55;5.32;;;;;;;;;;5053258;27;101097;-72
2023/10/07 01:29:42;;;;;;;16.88;5.82;;;;;;;;;;5049517;27;99101;-72
2023/10/07 01:32:17;;;;;;;16.67;6.47;;;;;;;;;;5068830;27;98600;-72
2023/10/07 01:34:52;;;;;;;21.30;5.80;;;;;;;;;;5067454;27;98696;-72
2023/10/07 01:37:21;;;;;;;16.65;5.78;;;;;;;;;;5050146;27;99053;-72
2023/10/07 01:39:49;;;;;;;12.43;5.30;;;;;;;;;;5047206;27;98747;-73
2023/10/07 01:42:36;;;;;;;14.73;5.72;;;;;;;;;;5049467;27;98389;-72
2023/10/07 01:45:10;;;;;;;20.40;5.50;;;;;;;;;;5048407;27;99104;-72
2023/10/07 01:47:39;;;;;;;19.85;5.70;;;;;;;;;;5068226;27;98342;-71
2023/10/07 01:50:11;;;;;;;18.30;5.55;;;;;;;;;;5065015;27;101277;-71
2023/10/07 01:52:39;;;;;;;13.38;5.78;;;;;;;;;;5055520;27;98878;-72
2023/10/07 01:55:09;;;;;;;13.93;5.40;;;;;;;;;;5049319;27;98657;-71
2023/10/07 01:57:39;;;;;;;22.35;5.05;;;;;;;;;;5055798;27;99163;-71
2023/10/07 02:00:07;;;;;;;13.20;4.95;;;;;;;;;;5066486;27;99248;-72
2023/10/07 02:02:48;;;;;;;20.50;5.10;;;;;;;;;;5067803;27;98171;-71
2023/10/07 02:05:16;;;;;;;16.92;5.20;;;;;;;;;;5068083;27;98769;-71
2023/10/07 02:07:43;;;;;;;16.20;5.93;;;;;;;;;;5088756;27;98234;-73
2023/10/07 02:10:23;;;;;;;15.02;4.97;;;;;;;;;;5073451;27;98234;-71
2023/10/07 02:12:52;;;;;;;14.75;5.03;;;;;;;;;;5089092;27;98164;-71
2023/10/07 02:15:19;;;;;;;14.07;5.20;;;;;;;;;;5087772;27;98733;-71
2023/10/07 02:17:47;;;;;;;13.07;5.20;;;;;;;;;;5090001;27;98057;-72
2023/10/07 02:20:28;;;;;;;19.98;5.63;;;;;;;;;;5087480;27;98264;-72
2023/10/07 02:22:55;;;;;;;15.35;5.47;;;;;;;;;;5080829;27;98710;-72
2023/10/07 02:25:26;;;;;;;10.52;5.03;;;;;;;;;;5048302;27;99190;-72
2023/10/07 02:27:54;;;;;;;17.40;5.93;;;;;;;;;;5046484;27;98700;-72
2023/10/07 02:30:21;;;;;;;16.05;5.03;;;;;;;;;;5064814;27;98350;-71
2023/10/07 02:32:47;;;;;;;24.48;6.55;;;;;;;;;;5072172;27;98891;-73
2023/10/07 02:35:19;;;;;;;20.23;5.32;;;;;;;;;;5067890;27;98465;-73
2023/10/07 02:37:49;;;;;;;13.48;5.45;;;;;;;;;;5067682;27;98767;-71
2023/10/07 02:40:22;;;;;;;21.20;5.40;;;;;;;;;;5057184;27;100019;-71
2023/10/07 02:42:51;;;;;;;12.15;4.70;;;;;;;;;;5068159;27;98823;-70
2023/10/07 02:47:47;;;;;;;16.65;5.57;;;;;;;;;;5067126;27;98366;-72
2023/10/07 02:50:14;;;;;;;20.10;5.70;;;;;;;;;;5064793;27;98560;-73
2023/10/07 02:52:40;;;;;;;23.27;5.40;;;;;;;;;;5068133;27;98946;-71
2023/10/07 02:57:43;;;;;;;15.70;5.50;;;;;;;;;;5067110;27;99190;-73
2023/10/07 03:00:29;;;;;;;13.00;4.28;;;;;;;;;;5068829;27;98433;-71
2023/10/07 03:05:44;;;;;;;17.85;5.32;;;;;;;;;;5068076;27;98756;-71
2023/10/07 03:08:20;;;;;;;17.90;5.18;;;;;;;;;;5068581;27;98568;-71
2023/10/07 03:11:10;;;;;;;13.82;4.88;;;;;;;;;;5066323;27;99529;-72
2023/10/07 03:13:39;;;;;;;17.17;4.95;;;;;;;;;;5062381;27;99001;-72
2023/10/07 03:16:10;;;;;;;20.42;5.40;;;;;;;;;;5049015;27;98342;-72
2023/10/07 03:18:38;;;;;;;7.88;4.60;;;;;;;;;;5046883;27;100514;-72
2023/10/07 03:21:11;;;;;;;15.93;4.93;;;;;;;;;;5055642;27;98216;-72
2023/10/07 03:23:45;;;;;;;17.58;6.00;;;;;;;;;;5046712;27;98803;-72
2023/10/07 03:26:13;;;;;;;12.90;4.47;;;;;;;;;;5052127;27;100012;-72
2023/10/07 03:28:51;;;;;;;13.60;5.70;;;;;;;;;;5054290;27;98898;-71
2023/10/07 03:31:20;;;;;;;12.70;5.55;;;;;;;;;;5066138;27;99603;-72
2023/10/07 03:33:51;;;;;;;23.58;6.15;;;;;;;;;;5067887;27;98844;-72
2023/10/07 03:38:57;;;;;;;10.13;5.10;;;;;;;;;;5071021;27;98612;-73
2023/10/07 03:41:24;;;;;;;15.05;6.40;;;;;;;;;;5063459;27;98950;-72
2023/10/07 03:43:50;;;;;;;13.98;6.40;;;;;;;;;;5064541;27;99406;-72
2023/10/07 03:46:17;;;;;;;21.98;5.68;;;;;;;;;;5066613;27;98953;-72
2023/10/07 03:48:53;;;;;;;18.55;5.15;;;;;;;;;;5066822;27;98296;-72
2023/10/07 03:51:22;;;;;;;15.77;6.07;;;;;;;;;;5066847;27;98437;-73
2023/10/07 03:53:51;;;;;;;20.15;5.85;;;;;;;;;;5066724;27;99090;-72
2023/10/07 03:56:20;;;;;;;11.68;5.00;;;;;;;;;;5067228;27;98322;-72
2023/10/07 03:58:47;;;;;;;23.00;6.20;;;;;;;;;;5066095;27;99077;-72
2023/10/07 04:01:17;;;;;;;14.85;5.93;;;;;;;;;;5052185;27;100004;-73
2023/10/07 04:03:48;;;;;;;16.83;6.03;;;;;;;;;;5047358;27;99270;-73
2023/10/07 04:06:17;;;;;;;13.40;6.15;;;;;;;;;;5045390;27;100079;-72
2023/10/07 04:08:52;;;;;;;21.17;5.97;;;;;;;;;;5046905;27;98233;-72
2023/10/07 04:11:25;;;;;;;15.10;5.40;;;;;;;;;;5046371;27;99572;-71
2023/10/07 04:13:55;;;;;;;20.67;6.25;;;;;;;;;;5051698;27;99964;-73
2023/10/07 04:16:24;;;;;;;20.30;6.03;;;;;;;;;;5054636;27;98337;-73
2023/10/07 04:18:52;;;;;;;18.05;6.20;;;;;;;;;;5046989;27;98523;-72
2023/10/07 04:21:23;;;;;;;16.63;5.97;;;;;;;;;;5045764;27;99897;-73
2023/10/07 04:23:50;;;;;;;19.40;6.03;;;;;;;;;;5050591;27;98195;-72
2023/10/07 04:26:19;;;;;;;11.35;5.05;;;;;;;;;;5048345;27;99022;-72
2023/10/07 04:28:48;;;;;;;14.82;5.15;;;;;;;;;;5066750;27;99129;-72
2023/10/07 04:31:16;;;;;;;18.30;5.65;;;;;;;;;;5063901;27;98446;-72
2023/10/07 04:33:53;;;;;;;14.35;5.53;;;;;;;;;;5066499;27;99476;-72
2023/10/07 04:36:33;;;;;;;17.20;4.60;;;;;;;;;;5067105;27;98236;-72
2023/10/07 04:39:17;;;;;;;12.48;4.80;;;;;;;;;;5065927;27;98394;-72
2023/10/07 04:41:56;;;;;;;18.17;5.00;;;;;;;;;;5051975;27;100096;-72
2023/10/07 04:44:27;;;;;;;17.70;5.50;;;;;;;;;;5077154;27;98635;-72
2023/10/07 04:46:57;;;;;;;16.65;5.50;;;;;;;;;;5082595;27;99713;-72
2023/10/07 04:49:35;;;;;;;15.80;4.60;;;;;;;;;;5046019;27;98317;-72
2023/10/07 04:52:05;;;;;;;20.05;4.93;;;;;;;;;;5047193;27;98523;-73
2023/10/07 04:54:35;;;;;;;19.00;5.30;;;;;;;;;;5049592;27;99915;-72
2023/10/07 04:57:05;;;;;;;14.70;5.60;;;;;;;;;;5048640;27;98230;-72
2023/10/07 04:59:31;;;;;;;13.27;5.10;;;;;;;;;;5049633;27;98515;-72
2023/10/07 05:02:01;;;;;;;14.07;4.90;;;;;;;;;;5062050;27;99108;-73
2023/10/07 05:04:28;;;;;;;15.65;4.43;;;;;;;;;;5057698;27;99370;-73
2023/10/07 05:06:55;;;;;;;10.43;4.55;;;;;;;;;;5050033;27;98985;-71
2023/10/07 05:09:21;;;;;;;17.73;4.47;;;;;;;;;;5051775;27;98159;-72
2023/10/07 05:11:49;;;;;;;17.40;5.35;;;;;;;;;;5063242;27;99609;-72
2023/10/07 05:14:22;;;;;;;15.65;4.63;;;;;;;;;;5069024;27;99299;-73
2023/10/07 05:16:48;;;;;;;18.77;5.72;;;;;;;;;;5064370;27;98194;-72
2023/10/07 05:19:27;;;;;;;13.80;4.88;;;;;;;;;;5066619;27;99277;-72
2023/10/07 05:22:05;;;;;;;13.13;4.82;;;;;;;;;;5054557;27;99949;-73
2023/10/07 05:24:32;;;;;;;24.63;5.75;;;;;;;;;;5068898;27;98564;-73
2023/10/07 05:26:59;;;;;;;13.50;4.35;;;;;;;;;;5066089;27;98705;-74
2023/10/07 05:29:28;;;;;;;13.82;5.22;;;;;;;;;;5058834;27;100132;-72
2023/10/07 05:31:56;;;;;;;17.83;5.68;;;;;;;;;;5069170;27;99344;-71
2023/10/07 05:34:28;;;;;;;20.35;5.07;;;;;;;;;;5069621;27;99083;-72
2023/10/07 05:36:55;;;;;;;;;;;;;;;;;;5070355;27;98492;-71
2023/10/07 05:39:21;;;;;;;18.42;5.18;;;;;;;;;;5067818;27;116153;-71
2023/10/07 05:41:49;;;;;;;16.00;5.15;;;;;;;;;;5070341;27;99950;-72
2023/10/07 05:44:17;;;;;;;13.95;5.78;;;;;;;;;;5078210;27;98209;-72
2023/10/07 05:46:43;;;;;;;20.60;5.93;;;;;;;;;;5069002;27;98612;-72
2023/10/07 05:49:10;;;;;;;12.57;5.20;;;;;;;;;;5069490;27;99851;-72
2023/10/07 05:51:37;;;;;;;14.15;5.38;;;;;;;;;;5072140;27;98352;-72
2023/10/07 05:54:05;;;;;;;14.30;5.85;;;;;;;;;;5069037;27;100269;-71
2023/10/07 05:56:31;;;;;;;13.43;5.95;;;;;;;;;;5069224;27;98347;-72
2023/10/07 05:58:58;;;;;;;29.67;6.75;;;;;;;;;;5068465;27;100145;-71
2023/10/07 06:01:24;;;;;;;19.10;5.68;;;;;;;;;;5068937;27;99922;-71
2023/10/07 06:03:52;;;;;;;15.40;5.22;;;;;;;;;;5069203;27;98709;-71
2023/10/07 06:06:20;;;;;;;18.25;5.95;;;;;;;;;;5068320;27;98200;-72
2023/10/07 06:08:47;;;;;;;21.33;5.32;;;;;;;;;;5069160;27;100060;-72
2023/10/07 06:11:15;;;;;;;17.90;5.18;;;;;;;;;;5071007;27;98243;-72
2023/10/07 06:13:44;;;;;;;20.23;5.18;;;;;;;;;;5091443;27;98848;-72
2023/10/07 06:16:13;;;;;;;11.30;4.18;;;;;;;;;;5088267;27;98071;-73
2023/10/07 06:18:40;;;;;;;15.23;5.05;;;;;;;;;;5089290;27;98789;-73
2023/10/07 06:23:53;;;;;;;11.88;4.65;;;;;;;;;;5089882;27;98225;-73
2023/10/07 06:26:20;;;;;;;12.75;4.55;;;;;;;;;;5088718;27;98571;-73
2023/10/07 06:28:48;;;;;;;7.70;3.55;;;;;;;;;;5089793;27;100852;-75
2023/10/07 06:31:34;;;;;;;16.17;4.97;;;;;;;;;;5088989;27;98485;-75
2023/10/07 06:34:12;;;;;;;13.68;4.28;;;;;;;;;;5088736;27;99716;-74
2023/10/07 06:36:40;;;;;;;15.32;4.28;;;;;;;;;;5091912;27;99812;-75
2023/10/07 06:39:10;;;;;;;11.45;4.20;;;;;;;;;;5089158;27;99111;-74
2023/10/07 06:41:42;;;;;;;10.98;3.88;;;;;;;;;;5079805;27;100118;-74
2023/10/07 06:44:09;;;;;;;12.38;4.32;;;;;;;;;;5068819;27;98261;-74
2023/10/07 06:46:42;;;;;;;14.40;4.50;;;;;;;;;;5068305;27;100574;-74
2023/10/07 06:49:18;;;;;;;19.10;4.40;;;;;;;;;;5067828;27;99891;-74
2023/10/07 06:51:50;;;;;;;18.30;4.30;;;;;;;;;;5068593;27;98114;-73
2023/10/07 06:54:17;;;;;;;16.92;5.05;;;;;;;;;;5068736;27;98528;-74
2023/10/07 06:56:45;;;;;;;21.08;5.28;;;;;;;;;;5067744;27;99915;-73
2023/10/07 06:59:13;;;;;;;14.57;4.80;;;;;;;;;;5071640;27;98698;-73
2023/10/07 07:04:10;;;;;;;14.27;4.38;;;;;;;;;;5068240;27;98555;-72
2023/10/07 07:06:44;;;;;;;16.80;4.90;;;;;;;;;;5068141;27;98840;-72
2023/10/07 07:12:03;;;;;;;14.20;4.82;;;;;;;;;;5081205;27;98704;-72
2023/10/07 07:14:30;;;;;;;23.95;5.70;;;;;;;;;;5086619;27;99327;-72
2023/10/07 07:20:18;;;;;;;17.02;5.25;;;;;;;;;;5087009;27;100157;-72
2023/10/07 07:22:35;;;;;;;17.48;5.07;;;;;;;;;;5066689;27;99217;-73
2023/10/07 07:25:05;;;;;;;13.88;4.95;;;;;;;;;;5068171;27;98333;-72
2023/10/07 07:27:35;;;;;;;13.55;5.18;;;;;;;;;;5067083;27;98989;-72
2023/10/07 07:30:02;;;;;;;15.50;5.32;;;;;;;;;;5071692;27;99444;-72
2023/10/07 07:32:32;;;;;;;12.35;4.30;;;;;;;;;;5088309;27;98228;-74
2023/10/07 07:35:03;;;;;;;13.80;4.60;;;;;;;;;;5088452;27;99864;-73
2023/10/07 07:37:33;;;;;;;12.65;4.63;;;;;;;;;;5087192;27;99886;-73
2023/10/07 07:40:09;;;;;;;19.85;4.70;;;;;;;;;;5088204;27;99016;-73
2023/10/07 07:42:35;;;;;;;25.63;5.50;;;;;;;;;;5091152;27;99435;-73
2023/10/07 07:45:15;;;;;;;19.23;5.28;;;;;;;;;;5087839;27;98593;-73
2023/10/07 07:47:41;;;;;;;15.15;4.90;;;;;;;;;;5088681;27;99908;-74
2023/10/07 07:50:08;;;;;;;22.80;5.82;;;;;;;;;;5081983;27;99102;-73
2023/10/07 07:52:35;;;;;;;12.23;5.10;;;;;;;;;;5065866;27;98168;-73
2023/10/07 07:55:01;;;;;;;14.75;5.07;;;;;;;;;;5067633;27;99504;-73
2023/10/07 07:57:28;;;;;;;19.73;5.25;;;;;;;;;;5067071;27;99307;-73
2023/10/07 07:59:55;;;;;;;24.65;6.03;;;;;;;;;;5060670;27;98174;-74
2023/10/07 08:02:24;;;;;;;14.75;5.40;;;;;;;;;;5046698;27;98713;-74
2023/10/07 08:04:51;;;;;;;16.73;5.65;;;;;;;;;;5049372;27;100407;-74
2023/10/07 08:09:50;;;;;;;;;;;;;;;;;;5047820;27;99995;-73
2023/10/07 08:12:19;;;;;;;17.45;4.95;;;;;;;;;;5046428;27;98549;-73
2023/10/07 08:14:50;;;;;;;13.65;5.28;;;;;;;;;;5046180;27;98585;-73
2023/10/07 08:17:19;;;;;;;17.58;5.38;;;;;;;;;;5045577;27;99767;-73
2023/10/07 08:19:50;;;;;;;12.55;5.20;;;;;;;;;;5045731;27;98892;-73
2023/10/07 08:22:20;;;;;;;16.25;3.90;;;;;;;;;;5055972;27;99506;-73
2023/10/07 08:24:47;;;;;;;14.80;5.00;;;;;;;;;;5087608;27;100211;-73
2023/10/07 08:30:07;;;;;;;15.15;5.85;;;;;;;;;;5078594;27;98813;-73
2023/10/07 08:32:41;;;;;;;12.77;4.72;;;;;;;;;;5049584;27;99991;-73
2023/10/07 08:35:17;;;;;;;20.58;4.70;;;;;;;;;;5049915;27;98569;-73
2023/10/07 08:37:46;;;;;;;13.75;5.00;;;;;;;;;;5049961;27;99334;-72
2023/10/07 08:40:15;;;;;;;19.58;5.25;;;;;;;;;;5049324;27;98766;-72
2023/10/07 08:42:44;;;;;;;17.10;5.20;;;;;;;;;;5048648;27;99450;-72
2023/10/07 08:45:14;;;;;;;16.83;4.88;;;;;;;;;;5050131;27;99503;-73
2023/10/07 08:47:49;;;;;;;15.70;3.95;;;;;;;;;;5069492;27;98713;-73
2023/10/07 08:50:22;;;;;;;15.90;4.68;;;;;;;;;;5072643;27;99846;-72
2023/10/07 08:53:07;;;;;;;11.95;4.15;;;;;;;;;;5063939;27;98243;-73
2023/10/07 08:55:34;;;;;;;27.45;5.38;;;;;;;;;;5048968;27;98927;-72
2023/10/07 08:58:03;;;;;;;18.17;4.53;;;;;;;;;;5049920;27;99985;-73
2023/10/07 09:00:33;;;;;;;17.17;5.15;;;;;;;;;;5076959;27;98195;-73
2023/10/07 09:02:59;;;;;;;13.65;4.10;;;;;;;;;;5061263;27;99698;-73
2023/10/07 09:05:29;;;;;;;13.52;4.03;;;;;;;;;;5069743;27;99021;-73
2023/10/07 09:07:56;;;;;;;15.20;4.22;;;;;;;;;;5069796;27;98919;-73
2023/10/07 09:10:28;;;;;;;10.98;4.47;;;;;;;;;;5069001;27;99257;-72
2023/10/07 09:12:56;;;;;;;8.82;4.63;;;;;;;;;;5072259;27;100269;-73
2023/10/07 09:15:26;;;;;;;15.73;4.30;;;;;;;;;;5068808;27;98522;-72
2023/10/07 09:18:06;;;;;;;16.45;3.72;;;;;;;;;;5069842;27;98940;-72
2023/10/07 09:20:33;;;;;;;15.55;4.15;;;;;;;;;;5059583;27;98239;-72
2023/10/07 09:23:01;;;;;;;14.07;3.95;;;;;;;;;;5048877;27;99489;-72
2023/10/07 09:25:34;;;;;;;8.98;4.50;;;;;;;;;;5049296;27;98810;-72
2023/10/07 09:28:02;;;;;;;14.30;3.88;;;;;;;;;;5049601;27;98662;-73
2023/10/07 09:30:35;;;;;;;15.70;3.80;;;;;;;;;;5063023;27;99021;-74
2023/10/07 09:33:12;;;;;;;19.55;3.78;;;;;;;;;;5057536;27;100002;-72
2023/10/07 09:35:42;;;;;;;18.23;3.72;;;;;;;;;;5069724;27;99392;-72
2023/10/07 09:38:12;;;;;;;18.58;4.15;;;;;;;;;;5067764;27;101618;-73
2023/10/07 09:43:27;;;;;;;11.73;3.75;;;;;;;;;;5067485;27;99818;-73
2023/10/07 09:45:58;;;;;;;16.85;3.92;;;;;;;;;;5069624;27;99232;-72
2023/10/07 09:48:31;;;;;;;11.38;3.70;;;;;;;;;;5069011;27;98236;-73
2023/10/07 09:50:58;;;;;;;13.77;3.83;;;;;;;;;;5069313;27;99298;-72
2023/10/07 09:53:27;;;;;;;15.65;4.55;;;;;;;;;;5067850;27;99318;-74
2023/10/07 09:55:56;;;;;;;19.35;5.20;;;;;;;;;;5073142;27;98290;-72
2023/10/07 09:58:36;;;;;;;14.45;3.63;;;;;;;;;;5069127;27;98855;-74
2023/10/07 10:01:05;;;;;;;19.45;4.68;;;;;;;;;;5068127;27;98313;-72
2023/10/07 10:03:33;;;;;;;13.52;3.55;;;;;;;;;;5068108;27;98717;-75
2023/10/07 10:06:09;;;;;;;20.15;3.38;;;;;;;;;;5068341;27;100332;-72
2023/10/07 10:08:59;;;;;;;10.85;3.58;;;;;;;;;;5069241;27;98314;-72
2023/10/07 10:11:44;;;;;;;13.25;3.80;;;;;;;;;;5068404;27;98407;-73
2023/10/07 10:16:47;;;;;;;14.13;5.03;;;;;;;;;;5048770;27;98359;-72
2023/10/07 10:19:24;;;;;;;18.23;4.50;;;;;;;;;;5051002;27;99457;-72
2023/10/07 10:21:52;;;;;;;14.20;3.85;;;;;;;;;;5048543;27;98777;-72
2023/10/07 10:24:31;;;;;;;11.38;3.95;;;;;;;;;;5068287;27;99615;-73
2023/10/07 10:27:04;;;;;;;23.55;5.50;;;;;;;;;;5067031;27;99004;-73
2023/10/07 10:29:36;;;;;;;14.85;3.70;;;;;;;;;;5069323;27;98333;-73
2023/10/07 10:32:09;;;;;;;13.65;4.30;;;;;;;;;;5069639;27;98759;-74
2023/10/07 10:34:39;;;;;;;9.75;3.70;;;;;;;;;;5067928;27;98952;-73
2023/10/07 10:37:06;;;;;;;9.98;4.20;;;;;;;;;;5050310;27;98620;-73
2023/10/07 10:39:33;;;;;;;11.52;3.75;;;;;;;;;;5046971;27;99691;-72
2023/10/07 10:42:03;;;;;;;11.50;3.55;;;;;;;;;;5052040;27;99246;-72
2023/10/07 10:44:39;;;;;;;6.05;3.00;;;;;;;;;;5067739;27;98436;-73
2023/10/07 10:47:09;;;;;;;10.73;4.85;;;;;;;;;;5058945;27;99231;-74
2023/10/07 10:49:36;;;;;;;14.63;4.03;;;;;;;;;;5060410;27;99236;-74
2023/10/07 10:52:04;;;;;;;20.98;4.97;;;;;;;;;;5047286;27;98977;-73
2023/10/07 10:54:32;;;;;;;17.15;4.22;;;;;;;;;;5058580;27;98854;-73
2023/10/07 10:56:58;;;;;;;10.55;3.90;;;;;;;;;;5051301;27;98746;-72
2023/10/07 10:59:47;;;;;;;21.30;4.20;;;;;;;;;;5062844;27;99759;-73
2023/10/07 11:02:17;;;;;;;13.60;3.72;;;;;;;;;;5066557;27;98962;-73
2023/10/07 11:04:45;;;;;;;14.13;3.70;;;;;;;;;;5072155;27;98224;-73
2023/10/07 11:07:14;;;;;;;12.82;3.70;;;;;;;;;;5067923;27;100060;-73
2023/10/07 11:09:47;;;;;;;12.02;3.65;;;;;;;;;;5066745;27;98730;-72
2023/10/07 11:12:16;;;;;;;8.75;4.13;;;;;;;;;;5068583;27;99339;-72
2023/10/07 11:14:43;;;;;;;14.68;4.25;;;;;;;;;;5076197;27;100479;-73
2023/10/07 11:17:12;;;;;;;12.52;3.95;;;;;;;;;;5067273;27;98367;-74
2023/10/07 11:19:41;;;;;;;13.48;3.95;;;;;;;;;;5068006;27;98405;-73
2023/10/07 11:22:18;;;;;;;12.93;3.92;;;;;;;;;;5048510;27;100224;-74
2023/10/07 11:24:46;;;;;;;21.60;3.95;;;;;;;;;;5046303;27;98541;-73
2023/10/07 11:27:13;;;;;;;12.27;3.50;;;;;;;;;;5051255;27;98518;-73
2023/10/07 11:29:40;;;;;;;9.45;3.55;;;;;;;;;;5050949;27;99008;-74
2023/10/07 11:32:07;;;;;;;7.35;3.65;;;;;;;;;;5051757;27;99078;-71
2023/10/07 11:34:36;;;;;;;12.77;3.60;;;;;;;;;;5049722;27;99070;-73
2023/10/07 11:37:09;;;;;;;7.85;3.15;;;;;;;;;;5044127;27;98609;-73
2023/10/07 11:39:43;;;;;;;15.98;3.90;;;;;;;;;;5050812;27;100014;-72
2023/10/07 11:42:11;;;;;;;14.05;3.85;;;;;;;;;;5066653;27;99185;-71
2023/10/07 11:44:38;;;;;;;15.82;4.35;;;;;;;;;;5066750;27;98196;-71
2023/10/07 11:47:06;;;;;;;17.33;4.97;;;;;;;;;;5059591;27;98918;-72
2023/10/07 11:49:37;;;;;;;9.38;3.63;;;;;;;;;;5051899;27;99925;-73
2023/10/07 11:52:06;;;;;;;9.77;3.95;;;;;;;;;;5046705;27;99631;-73
2023/10/07 11:54:40;;;;;;;5.95;3.70;;;;;;;;;;5047927;27;101027;-72
2023/10/07 11:57:06;;;;;;;13.38;4.53;;;;;;;;;;5043856;27;99898;-72
2023/10/07 11:59:41;;;;;;;12.73;3.05;;;;;;;;;;5045853;27;100998;-72
2023/10/07 12:02:11;;;;;;;9.18;4.85;;;;;;;;;;5050450;27;101055;-72
2023/10/07 12:04:38;;;;;;;12.35;3.38;;;;;;;;;;5050134;27;99639;-72
2023/10/07 12:07:08;;;;;;;13.98;3.83;;;;;;;;;;5065163;27;99438;-73
2023/10/07 12:09:34;;;;;;;12.55;3.28;;;;;;;;;;5062303;27;100189;-73
2023/10/07 12:12:02;;;;;;;11.73;4.88;;;;;;;;;;5056329;27;99754;-74
2023/10/07 12:14:29;;;;;;;13.80;3.38;;;;;;;;;;5063552;27;100128;-74
2023/10/07 12:16:55;;;;;;;9.23;3.72;;;;;;;;;;5059891;27;98284;-74
2023/10/07 12:19:25;;;;;;;10.82;4.38;;;;;;;;;;5060259;27;100383;-72
2023/10/07 12:21:52;;;;;;;10.23;3.78;;;;;;;;;;5056518;27;99963;-73
2023/10/07 12:24:19;;;;;;;6.28;3.42;;;;;;;;;;5062240;27;100029;-72
2023/10/07 12:26:46;;;;;;;12.02;4.38;;;;;;;;;;5058002;27;100713;-72
2023/10/07 12:29:13;;;;;;;6.05;3.15;;;;;;;;;;5056658;27;100136;-72
2023/10/07 12:31:40;;;;;;;7.90;3.35;;;;;;;;;;5062435;27;98231;-72
2023/10/07 12:34:09;;;;;;;14.90;3.92;;;;;;;;;;5056926;27;99329;-73
2023/10/07 12:36:38;;;;;;;6.40;3.88;;;;;;;;;;5055925;27;98031;-73
2023/10/07 12:39:11;;;;;;;10.30;2.85;;;;;;;;;;5049532;27;99870;-72
2023/10/07 12:41:38;;;;;;;4.57;2.83;;;;;;;;;;5050067;27;99844;-73
2023/10/07 12:44:08;;;;;;;10.52;3.30;;;;;;;;;;5049990;27;98261;-72
2023/10/07 12:46:36;;;;;;;10.82;3.75;;;;;;;;;;5048568;27;99519;-73
2023/10/07 12:49:10;;;;;;;10.90;4.07;;;;;;;;;;5054838;27;99963;-73
2023/10/07 12:51:37;;;;;;;10.55;3.35;;;;;;;;;;5049932;27;98184;-72
2023/10/07 12:54:08;;;;;;;9.88;3.53;;;;;;;;;;5059358;27;98755;-71
2023/10/07 12:56:36;;;;;;;9.60;4.78;;;;;;;;;;5068421;27;98697;-71
2023/10/07 12:59:07;;;;;;;9.55;3.42;;;;;;;;;;5069539;27;98569;-71
2023/10/07 13:01:34;;;;;;;6.15;3.70;;;;;;;;;;5060765;27;100252;-71
2023/10/07 13:04:01;;;;;;;15.40;3.60;;;;;;;;;;5050236;27;98368;-72
2023/10/07 13:06:28;;;;;;;8.00;3.58;;;;;;;;;;5066243;27;100327;-71
2023/10/07 13:08:57;;;;;;;6.97;3.28;;;;;;;;;;5061559;27;99357;-71
2023/10/07 13:11:26;;;;;;;9.23;3.45;;;;;;;;;;5048041;27;98320;-70
2023/10/07 13:13:54;;;;;;;8.38;3.40;;;;;;;;;;5061041;27;99302;-72
2023/10/07 13:16:21;;;;;;;12.25;3.50;;;;;;;;;;5071925;27;101318;-72
2023/10/07 13:18:49;;;;;;;10.68;3.88;;;;;;;;;;5049438;27;98972;-70
2023/10/07 13:21:25;;;;;;;17.45;4.00;;;;;;;;;;5058948;27;99210;-71
2023/10/07 13:23:52;;;;;;;9.82;3.88;;;;;;;;;;5048390;27;99409;-71
2023/10/07 13:26:19;;;;;;;10.35;3.80;;;;;;;;;;5045778;27;99386;-72
2023/10/07 13:28:48;;;;;;;14.10;4.10;;;;;;;;;;5060536;27;99691;-72
2023/10/07 13:31:17;;;;;;;6.75;4.03;;;;;;;;;;5062009;27;99102;-71
2023/10/07 13:33:46;;;;;;;15.45;4.20;;;;;;;;;;5060128;27;98689;-71
2023/10/07 13:36:16;;;;;;;9.98;4.70;;;;;;;;;;5056188;27;99127;-72
2023/10/07 13:38:43;;;;;;;10.52;3.20;;;;;;;;;;5061614;27;99695;-72
2023/10/07 13:41:14;;;;;;;13.70;5.60;;;;;;;;;;5062647;27;99497;-72
2023/10/07 13:43:41;;;;;;;13.52;4.93;;;;;;;;;;5057634;27;98589;-72
2023/10/07 13:46:11;;;;;;;13.93;4.10;;;;;;;;;;5048931;27;100052;-74
2023/10/07 13:48:38;;;;;;;17.38;6.15;;;;;;;;;;5048642;27;99815;-73
2023/10/07 13:51:06;;;;;;;9.23;4.05;;;;;;;;;;5047861;27;98185;-71
2023/10/07 13:54:21;;;;;;;14.23;4.40;;;;;;;;;;5055484;27;100844;-71
2023/10/07 13:57:02;;;;;;;14.10;3.88;;;;;;;;;;5067926;27;100067;-73
2023/10/07 13:59:29;;;;;;;12.38;3.40;;;;;;;;;;5072967;27;99282;-72
2023/10/07 14:01:55;;;;;;;14.07;4.53;;;;;;;;;;5068979;27;100069;-72
2023/10/07 14:04:25;;;;;;;12.10;4.32;;;;;;;;;;5068022;27;98378;-72
2023/10/07 14:06:58;;;;;;;8.48;4.05;;;;;;;;;;5069438;27;98873;-72
2023/10/07 14:09:25;;;;;;;9.52;4.30;;;;;;;;;;5067750;27;98097;-72
2023/10/07 14:11:52;;;;;;;8.65;3.67;;;;;;;;;;5067982;27;98103;-72
2023/10/07 14:14:19;;;;;;;14.98;4.82;;;;;;;;;;5068046;27;98610;-72
2023/10/07 14:16:45;;;;;;;10.55;3.50;;;;;;;;;;5068846;27;100128;-72
2023/10/07 14:19:13;;;;;;;10.05;2.88;;;;;;;;;;5067987;27;98244;-71
2023/10/07 14:21:40;;;;;;;13.05;4.07;;;;;;;;;;5071656;27;98746;-73
2023/10/07 14:24:07;;;;;;;11.85;4.53;;;;;;;;;;5068341;27;98251;-72
2023/10/07 14:26:34;;;;;;;13.13;4.63;;;;;;;;;;5067751;27;99818;-72
2023/10/07 14:29:02;;;;;;;14.52;6.18;;;;;;;;;;5079612;27;99855;-72
2023/10/07 14:31:32;;;;;;;10.52;4.55;;;;;;;;;;5088357;27;98304;-71
2023/10/07 14:33:59;;;;;;;19.85;5.22;;;;;;;;;;5087643;27;98669;-72
2023/10/07 14:36:26;;;;;;;11.20;3.55;;;;;;;;;;5088395;27;98903;-72
2023/10/07 14:38:55;;;;;;;9.80;3.28;;;;;;;;;;5087494;27;98467;-72
2023/10/07 14:41:22;;;;;;;8.23;3.60;;;;;;;;;;5088307;27;98766;-72
2023/10/07 14:43:49;;;;;;;11.55;4.15;;;;;;;;;;5091971;27;99703;-72
2023/10/07 14:46:15;;;;;;;17.20;3.60;;;;;;;;;;5087538;27;98507;-72
2023/10/07 14:48:45;;;;;;;8.70;3.70;;;;;;;;;;5088582;27;100000;-73
2023/10/07 14:51:12;;;;;;;14.90;3.53;;;;;;;;;;5089022;27;98031;-71
2023/10/07 14:53:39;;;;;;;8.57;3.45;;;;;;;;;;5086647;27;98440;-72
2023/10/07 14:56:09;;;;;;;17.17;4.15;;;;;;;;;;5074501;27;99004;-72
2023/10/07 14:58:36;;;;;;;11.32;3.97;;;;;;;;;;5066916;27;98986;-72
2023/10/07 15:01:06;;;;;;;14.20;3.90;;;;;;;;;;5067291;27;99509;-72
2023/10/07 15:03:32;;;;;;;17.58;5.40;;;;;;;;;;5067638;27;98800;-72
2023/10/07 15:06:09;;;;;;;12.45;3.88;;;;;;;;;;5071205;27;98362;-71
2023/10/07 15:08:35;;;;;;;12.55;3.70;;;;;;;;;;5066603;27;99060;-72
2023/10/07 15:11:05;;;;;;;15.38;4.85;;;;;;;;;;5067500;27;98250;-72
2023/10/07 15:13:34;;;;;;;15.10;3.70;;;;;;;;;;5067184;27;98758;-72
2023/10/07 15:16:12;;;;;;;12.88;3.75;;;;;;;;;;5068020;27;99035;-72
2023/10/07 15:18:39;;;;;;;12.70;4.13;;;;;;;;;;5067725;27;98278;-72
2023/10/07 15:21:05;;;;;;;12.10;3.97;;;;;;;;;;5066898;27;98509;-72
2023/10/07 15:23:33;;;;;;;18.65;4.97;;;;;;;;;;5074004;27;99043;-72